Flight Track Log - Related Links

Times and Time Zones

All times are in EDT time to prevent confusion due to time zone crossing. See the RPA3869 flight status page for this flight to view local times or setup timezone preferences in your user account.

Time Position Orientation Groundspeed Altitude Reporting Facility
EDT Latitude Longitude Course Direction KTS MPH feet Rate Location/Type
Mon 02:17:00 PM 33.8491 -78.6538 50° Northeast  Level FlightAware Approximate
Mon 02:17:19 PM 33.7367 -78.7969 56° Northeast 250 288 3,900  Level Jacksonville Center
Mon 02:18:00 PM 33.9124 -78.5632 50° Northeast  Level FlightAware Approximate
Mon 02:18:19 PM 33.7953 -78.7417 38° Northeast 255 293 5,600  Level Jacksonville Center
Mon 02:19:00 PM 33.9620 -78.4618 64° Northeast  Level FlightAware Approximate
Mon 02:19:19 PM 33.8472 -78.6742 47° Northeast 267 307 7,500  Level Jacksonville Center
Mon 02:20:00 PM 34.0274 -78.3740 46° Northeast  Level FlightAware Approximate
Mon 02:20:19 PM 33.8908 -78.6022 54° Northeast 267 307 9,600  Level Jacksonville Center
Mon 02:21:00 PM 34.0765 -78.2804 59° Northeast  Level FlightAware Approximate
Mon 02:21:19 PM 33.9150 -78.5208 70° East 260 299 11,200  Level Jacksonville Center
Mon 02:22:00 PM 34.1345 -78.2046 56° Northeast  Level FlightAware Approximate
Mon 02:22:56 PM 33.9308 -78.3725 83° East 263 303 13,700  Level Washington Center
Mon 02:23:57 PM 33.9867 -78.3092 43° Northeast 258 297 15,100 1,328 Climbing Washington Center
Mon 02:24:58 PM 34.0444 -78.2461 42° Northeast 263 303 16,400 1,261 Climbing Washington Center
Mon 02:25:56 PM 34.1000 -78.1800 45° Northeast 268 308 17,600 958 Climbing Washington Center
Mon 02:26:57 PM 34.1578 -78.1142 43° Northeast 279 321 18,300 836 Climbing Washington Center
Mon 02:27:58 PM 34.2136 -78.0431 46° Northeast 279 321 19,300 958 Climbing Washington Center
Mon 02:28:56 PM 34.2692 -77.9744 46° Northeast 279 321 20,200 800 Climbing Washington Center
Mon 02:29:58 PM 34.3311 -77.9056 43° Northeast 285 328 20,900 400 Climbing Washington Center
Mon 02:30:56 PM 34.4069 -77.8625 25° Northeast 290 334 21,000 50 Climbing Washington Center
Mon 02:31:57 PM 34.4969 -77.8422 11° North 290 334 21,000  Level Washington Center
Mon 02:32:57 PM 34.5914 -77.8197 11° North 322 371 21,000  Level Washington Center
Mon 02:33:58 PM 34.6856 -77.7944 12° North 340 391 21,000  Level Washington Center
Mon 02:34:58 PM 34.7842 -77.7694 12° North 346 398 21,000  Level Washington Center
Mon 02:35:56 PM 34.8786 -77.7439 13° North 346 398 21,000  Level Washington Center
Mon 02:36:56 PM 34.9750 -77.7211 11° North 346 398 21,000  Level Washington Center
Mon 02:37:57 PM 35.0650 -77.6983 12° North 357 411 21,000  Level Washington Center
Mon 02:38:56 PM 35.1614 -77.6728 12° North 357 411 21,000  Level Washington Center
Mon 02:39:56 PM 35.2578 -77.6497 11° North 352 405 21,000  Level Washington Center
Mon 02:40:57 PM 35.3564 -77.6244 12° North 357 411 21,000  Level Washington Center
Mon 02:41:57 PM 35.4528 -77.5989 12° North 357 411 21,000  Level Washington Center
Mon 02:42:58 PM 35.5533 -77.5758 11° North 357 411 21,000  Level Washington Center
Mon 02:43:58 PM 35.6519 -77.5500 12° North 357 411 21,000  Level Washington Center
Mon 02:44:56 PM 35.7481 -77.5269 11° North 357 411 21,000  Level Washington Center
Mon 02:45:56 PM 35.8444 -77.5011 12° North 357 411 21,000  Level Washington Center
Mon 02:46:57 PM 35.9450 -77.4778 11° North 357 411 21,000  Level Washington Center
Mon 02:47:58 PM 36.0436 -77.4544 11° North 357 411 21,000  Level Washington Center
Mon 02:48:56 PM 36.1419 -77.4258 13° North 357 411 21,000  Level Washington Center
Mon 02:49:57 PM 36.2383 -77.4050 10° North 352 405 21,000  Level Washington Center
Mon 02:50:58 PM 36.3367 -77.3917 North 352 405 21,000  Level Washington Center
Mon 02:51:58 PM 36.4347 -77.3914 360° North 352 405 21,000  Level Washington Center
Mon 02:52:56 PM 36.5347 -77.3886 North 352 405 21,000  Level Washington Center
Mon 02:53:56 PM 36.6350 -77.3908 359° North 347 399 21,000  Level Washington Center
Mon 02:54:57 PM 36.7350 -77.3906 360° North 347 399 21,000  Level Washington Center
Mon 02:55:58 PM 36.8353 -77.3928 359° North 347 399 21,000  Level Washington Center
Mon 02:56:56 PM 36.9353 -77.3900 North 347 399 21,000  Level Washington Center
Mon 02:57:56 PM 37.0258 -77.3375 25° Northeast 347 399 21,000  Level Washington Center
Mon 02:58:58 PM 37.1164 -77.2797 27° Northeast 352 405 21,000  Level Washington Center
Mon 02:59:56 PM 37.2069 -77.2242 26° Northeast 357 411 21,000  Level Washington Center
Mon 03:00:56 PM 37.2953 -77.1714 25° Northeast 357 411 21,000  Level Washington Center
Mon 03:01:57 PM 37.3736 -77.0761 44° Northeast 349 402 21,000  Level Washington Center
Mon 03:02:58 PM 37.4472 -77.0200 31° Northeast 343 395 21,000  Level Washington Center
Mon 03:03:58 PM 37.5461 -76.9617 25° Northeast 343 395 21,000 -508 Level Washington Center
Mon 03:04:56 PM 37.6361 -76.9136 23° Northeast 348 400 20,000 -1,008 Descending Washington Center
Mon 03:05:57 PM 37.7328 -76.8628 23° Northeast 358 412 19,000 -984 Descending Washington Center
Mon 03:06:58 PM 37.8272 -76.8117 23° Northeast 358 412 18,000 -958 Descending Washington Center
Mon 03:07:56 PM 37.9194 -76.7606 24° Northeast 358 412 17,100 -504 Descending Washington Center
Mon 03:08:57 PM 38.0053 -76.7144 23° Northeast 358 412 17,000 -50 Descending Washington Center
Mon 03:09:57 PM 38.0975 -76.6631 24° Northeast 358 412 17,000  Level Washington Center
Mon 03:10:58 PM 38.1856 -76.6033 28° Northeast 353 406 17,000  Level Washington Center
Mon 03:11:59 PM 38.2717 -76.5411 30° Northeast 353 406 17,000 -51 Level Washington Center
Mon 03:12:56 PM 38.3658 -76.4789 27° Northeast 348 400 16,900 -807 Descending Washington Center
Mon 03:13:58 PM 38.4561 -76.4136 30° Northeast 353 406 15,400 -1,450 Descending Washington Center
Mon 03:14:56 PM 38.5336 -76.3586 29° Northeast 360 414 14,000 -1,210 Descending Washington Center
Mon 03:15:57 PM 38.6194 -76.3039 26° Northeast 354 407 13,000 -492 Descending Washington Center
Mon 03:16:58 PM 38.7072 -76.2753 14° North 335 386 13,000 -248 Level Washington Center
Mon 03:17:58 PM 38.7950 -76.2336 20° North 330 380 12,500 -814 Descending Washington Center
Mon 03:18:56 PM 38.8786 -76.1836 25° Northeast 330 380 11,400 -763 Descending Washington Center
Mon 03:19:56 PM 38.9664 -76.1336 24° Northeast 335 386 11,000 -197 Descending Washington Center
Mon 03:20:58 PM 39.0478 -76.0861 24° Northeast 335 386 11,000  Level Washington Center
Mon 03:21:56 PM 39.1314 -76.0386 24° Northeast 335 386 11,000  Level Washington Center
Mon 03:22:56 PM 39.2192 -75.9908 23° Northeast 335 386 11,000  Level Washington Center
Mon 03:23:58 PM 39.3025 -75.9403 25° Northeast 335 386 11,000  Level Washington Center
Mon 03:26:27 PM 39.5167 -75.8000 27° Northeast 335 386 11,000  Level Philadelphia TRACON
Mon 03:27:27 PM 39.5667 -75.7000 57° Northeast 334 384 11,000  Level Philadelphia TRACON
Mon 03:28:27 PM 39.6167 -75.5833 61° Northeast 335 386 11,000  Level Philadelphia TRACON
Mon 03:29:27 PM 39.6500 -75.4833 67° East 335 386 11,000  Level Philadelphia TRACON
Mon 03:30:27 PM 39.7000 -75.3833 57° Northeast 337 388 11,000 -158 Level Philadelphia TRACON
Mon 03:31:21 PM 39.7333 -75.2667 70° East 338 389 10,700 -526 Descending Philadelphia TRACON
Mon 03:32:21 PM 39.7833 -75.1667 57° Northeast 344 396 10,000 -350 Descending Philadelphia TRACON
Mon 03:33:21 PM 39.8167 -75.0667 67° East 335 386 10,000  Level Philadelphia TRACON
Mon 03:34:21 PM 39.8833 -74.9667 49° Northeast 336 387 10,000 -261 Level Philadelphia TRACON
Mon 03:35:16 PM 39.9333 -74.8833 52° Northeast 335 386 9,500 -809 Descending Philadelphia TRACON
Mon 03:35:50 PM 39.9667 -74.8333 49° Northeast 308 354 8,800 -1,532 Descending New York TRACON
Mon 03:36:50 PM 40.0167 -74.7500 52° Northeast 287 330 7,100 -900 Descending New York TRACON
Mon 03:37:50 PM 40.0667 -74.6833 46° Northeast 277 319 7,000 -50 Descending New York TRACON
Mon 03:38:50 PM 40.1333 -74.6000 44° Northeast 281 323 7,000  Level New York TRACON
Mon 03:39:50 PM 40.1833 -74.5333 46° Northeast 280 322 7,000  Level New York TRACON
Mon 03:40:50 PM 40.2500 -74.5333 360° North 272 313 7,000 -450 Level New York TRACON
Mon 03:41:50 PM 40.3333 -74.5333 360° North 270 311 6,100 -500 Descending New York TRACON
Mon 03:42:50 PM 40.4000 -74.5333 360° North 267 307 6,000 -50 Descending New York TRACON
Mon 03:43:50 PM 40.4833 -74.5333 360° North 265 305 6,000  Level New York TRACON
Mon 03:44:50 PM 40.5500 -74.5167 11° North 272 313 6,000 -250 Level New York TRACON
Mon 03:45:50 PM 40.6333 -74.5167 360° North 268 308 5,500 -500 Descending New York TRACON
Mon 03:46:50 PM 40.7000 -74.5167 360° North 253 291 5,000 -250 Descending New York TRACON
Mon 03:47:50 PM 40.7667 -74.5333 349° North 260 299 5,000  Level New York TRACON
Mon 03:48:50 PM 40.8333 -74.4833 30° Northeast 273 314 5,000  Level New York TRACON
Mon 03:49:50 PM 40.8833 -74.4000 52° Northeast 273 314 5,000  Level New York TRACON
Mon 03:50:50 PM 40.9167 -74.3333 56° Northeast 270 311 5,000 -450 Level New York TRACON
Mon 03:51:50 PM 40.9500 -74.2333 66° East 264 304 4,100 -500 Descending New York TRACON
Mon 03:52:50 PM 40.9500 -74.1500 90° East 276 318 4,000 -100 Descending New York TRACON
Mon 03:53:50 PM 40.9000 -74.0667 128° Southeast 221 254 3,900 -500 Descending New York TRACON
Mon 03:54:50 PM 40.8500 -74.0667 180° South 197 227 3,000 -900 Descending New York TRACON

Login

Don't have an account? Register now (free) for customized features, flight alerts, and more!